sensor_id;sensor_type;location;lat;lon;timestamp;temperature;humidity
37786;DHT22;23625;48.784;9.336;2022-08-04T00:00:09;20.70;99.90
37786;DHT22;23625;48.784;9.336;2022-08-04T00:06:08;20.70;99.90
37786;DHT22;23625;48.784;9.336;2022-08-04T00:11:14;20.60;99.90
37786;DHT22;23625;48.784;9.336;2022-08-04T00:13:43;20.60;99.90
37786;DHT22;23625;48.784;9.336;2022-08-04T00:16:13;20.60;99.90
37786;DHT22;23625;48.784;9.336;2022-08-04T00:18:49;20.50;99.90
37786;DHT22;23625;48.784;9.336;2022-08-04T00:21:21;20.50;99.90
37786;DHT22;23625;48.784;9.336;2022-08-04T00:23:50;20.40;99.90
37786;DHT22;23625;48.784;9.336;2022-08-04T00:26:16;20.40;99.90
37786;DHT22;23625;48.784;9.336;2022-08-04T00:28:43;20.40;99.90
37786;DHT22;23625;48.784;9.336;2022-08-04T00:31:09;20.30;99.90
37786;DHT22;23625;48.784;9.336;2022-08-04T00:33:37;20.30;99.90
37786;DHT22;23625;48.784;9.336;2022-08-04T00:36:03;20.20;99.90
37786;DHT22;23625;48.784;9.336;2022-08-04T00:38:29;20.10;99.90
37786;DHT22;23625;48.784;9.336;2022-08-04T00:43:32;20.10;99.90
37786;DHT22;23625;48.784;9.336;2022-08-04T01:02:30;19.80;99.90
37786;DHT22;23625;48.784;9.336;2022-08-04T01:05:19;19.80;99.90
37786;DHT22;23625;48.784;9.336;2022-08-04T01:16:08;19.60;99.90
37786;DHT22;23625;48.784;9.336;2022-08-04T01:27:26;19.50;99.90
37786;DHT22;23625;48.784;9.336;2022-08-04T01:29:59;19.50;99.90
37786;DHT22;23625;48.784;9.336;2022-08-04T01:32:31;19.50;99.90
37786;DHT22;23625;48.784;9.336;2022-08-04T01:35:02;19.50;99.90
37786;DHT22;23625;48.784;9.336;2022-08-04T01:40:05;19.50;99.90
37786;DHT22;23625;48.784;9.336;2022-08-04T01:42:34;19.50;99.90
37786;DHT22;23625;48.784;9.336;2022-08-04T01:45:06;19.50;99.90
37786;DHT22;23625;48.784;9.336;2022-08-04T01:47:34;19.50;99.90
37786;DHT22;23625;48.784;9.336;2022-08-04T01:50:07;19.40;99.90
37786;DHT22;23625;48.784;9.336;2022-08-04T01:52:35;19.40;99.90
37786;DHT22;23625;48.784;9.336;2022-08-04T01:55:09;19.40;99.90
37786;DHT22;23625;48.784;9.336;2022-08-04T01:57:47;19.30;99.90
37786;DHT22;23625;48.784;9.336;2022-08-04T02:00:17;19.30;99.90
37786;DHT22;23625;48.784;9.336;2022-08-04T02:02:44;19.30;99.90
37786;DHT22;23625;48.784;9.336;2022-08-04T02:05:11;19.30;99.90
37786;DHT22;23625;48.784;9.336;2022-08-04T02:13:38;19.20;99.90
37786;DHT22;23625;48.784;9.336;2022-08-04T02:21:50;19.10;99.90
37786;DHT22;23625;48.784;9.336;2022-08-04T02:24:21;19.10;99.90
37786;DHT22;23625;48.784;9.336;2022-08-04T02:26:51;19.10;99.90
37786;DHT22;23625;48.784;9.336;2022-08-04T02:32:11;19.10;99.90
37786;DHT22;23625;48.784;9.336;2022-08-04T02:34:56;19.00;99.90
37786;DHT22;23625;48.784;9.336;2022-08-04T02:37:25;19.00;99.90
37786;DHT22;23625;48.784;9.336;2022-08-04T02:39:52;18.90;99.90
37786;DHT22;23625;48.784;9.336;2022-08-04T02:42:18;18.80;99.90
37786;DHT22;23625;48.784;9.336;2022-08-04T02:44:49;18.80;99.90
37786;DHT22;23625;48.784;9.336;2022-08-04T02:47:19;18.80;99.90
37786;DHT22;23625;48.784;9.336;2022-08-04T02:49:46;18.70;99.90
37786;DHT22;23625;48.784;9.336;2022-08-04T02:52:12;18.70;99.90
37786;DHT22;23625;48.784;9.336;2022-08-04T02:54:40;18.70;99.90
37786;DHT22;23625;48.784;9.336;2022-08-04T02:57:11;18.70;99.90
37786;DHT22;23625;48.784;9.336;2022-08-04T03:02:32;18.70;99.90
37786;DHT22;23625;48.784;9.336;2022-08-04T03:05:09;18.70;99.90
37786;DHT22;23625;48.784;9.336;2022-08-04T03:11:04;18.60;99.90
37786;DHT22;23625;48.784;9.336;2022-08-04T03:30:14;18.40;99.90
37786;DHT22;23625;48.784;9.336;2022-08-04T03:38:47;18.40;99.90
37786;DHT22;23625;48.784;9.336;2022-08-04T03:52:46;18.20;99.90
37786;DHT22;23625;48.784;9.336;2022-08-04T04:03:42;18.20;99.90
37786;DHT22;23625;48.784;9.336;2022-08-04T04:06:18;18.10;99.90
37786;DHT22;23625;48.784;9.336;2022-08-04T04:15:25;18.10;99.90
37786;DHT22;23625;48.784;9.336;2022-08-04T04:25:44;18.00;99.90
37786;DHT22;23625;48.784;9.336;2022-08-04T04:31:23;18.00;99.90
37786;DHT22;23625;48.784;9.336;2022-08-04T04:48:06;18.00;99.90
37786;DHT22;23625;48.784;9.336;2022-08-04T04:51:04;18.10;99.90
37786;DHT22;23625;48.784;9.336;2022-08-04T04:54:00;18.20;99.90
37786;DHT22;23625;48.784;9.336;2022-08-04T04:56:50;18.20;99.90
37786;DHT22;23625;48.784;9.336;2022-08-04T04:59:21;18.20;99.90
37786;DHT22;23625;48.784;9.336;2022-08-04T05:04:37;18.40;99.90
37786;DHT22;23625;48.784;9.336;2022-08-04T05:15:30;18.70;99.90
37786;DHT22;23625;48.784;9.336;2022-08-04T05:18:01;18.90;99.90
37786;DHT22;23625;48.784;9.336;2022-08-04T05:20:42;18.90;99.90
37786;DHT22;23625;48.784;9.336;2022-08-04T05:23:17;19.00;99.90
37786;DHT22;23625;48.784;9.336;2022-08-04T05:25:52;19.20;99.90
37786;DHT22;23625;48.784;9.336;2022-08-04T05:28:32;19.40;99.90
37786;DHT22;23625;48.784;9.336;2022-08-04T05:31:10;19.40;99.90
37786;DHT22;23625;48.784;9.336;2022-08-04T05:34:10;19.50;99.90
37786;DHT22;23625;48.784;9.336;2022-08-04T05:36:40;19.60;99.90
37786;DHT22;23625;48.784;9.336;2022-08-04T05:39:16;19.80;99.90
37786;DHT22;23625;48.784;9.336;2022-08-04T05:41:43;19.90;99.90
37786;DHT22;23625;48.784;9.336;2022-08-04T05:44:09;20.10;99.90
37786;DHT22;23625;48.784;9.336;2022-08-04T05:46:36;20.20;99.90
37786;DHT22;23625;48.784;9.336;2022-08-04T05:49:03;20.30;99.90
37786;DHT22;23625;48.784;9.336;2022-08-04T05:51:30;20.40;99.90
37786;DHT22;23625;48.784;9.336;2022-08-04T05:53:56;20.60;99.90
37786;DHT22;23625;48.784;9.336;2022-08-04T05:56:23;20.70;99.90
37786;DHT22;23625;48.784;9.336;2022-08-04T05:58:51;20.90;99.90
37786;DHT22;23625;48.784;9.336;2022-08-04T06:01:18;21.10;99.90
37786;DHT22;23625;48.784;9.336;2022-08-04T06:03:47;21.20;99.90
37786;DHT22;23625;48.784;9.336;2022-08-04T06:06:16;21.30;99.90
37786;DHT22;23625;48.784;9.336;2022-08-04T06:08:43;21.50;99.90
37786;DHT22;23625;48.784;9.336;2022-08-04T06:11:11;21.70;99.90
37786;DHT22;23625;48.784;9.336;2022-08-04T06:13:42;21.90;99.90
37786;DHT22;23625;48.784;9.336;2022-08-04T06:16:08;22.00;99.90
37786;DHT22;23625;48.784;9.336;2022-08-04T06:18:36;22.10;99.90
37786;DHT22;23625;48.784;9.336;2022-08-04T06:21:05;22.30;99.90
37786;DHT22;23625;48.784;9.336;2022-08-04T06:23:35;22.40;99.90
37786;DHT22;23625;48.784;9.336;2022-08-04T06:26:02;22.50;99.90
37786;DHT22;23625;48.784;9.336;2022-08-04T06:28:29;22.60;99.70
37786;DHT22;23625;48.784;9.336;2022-08-04T06:30:56;22.90;98.70
37786;DHT22;23625;48.784;9.336;2022-08-04T06:33:29;23.10;97.90
37786;DHT22;23625;48.784;9.336;2022-08-04T06:36:01;23.30;97.00
37786;DHT22;23625;48.784;9.336;2022-08-04T06:38:28;23.50;95.50
37786;DHT22;23625;48.784;9.336;2022-08-04T06:40:56;23.70;93.80
37786;DHT22;23625;48.784;9.336;2022-08-04T06:43:28;23.90;92.30
37786;DHT22;23625;48.784;9.336;2022-08-04T06:45:56;24.10;90.40
37786;DHT22;23625;48.784;9.336;2022-08-04T06:48:24;24.30;87.70
37786;DHT22;23625;48.784;9.336;2022-08-04T06:50:51;24.50;82.60
37786;DHT22;23625;48.784;9.336;2022-08-04T06:53:18;24.60;79.30
37786;DHT22;23625;48.784;9.336;2022-08-04T06:55:45;24.80;78.40
37786;DHT22;23625;48.784;9.336;2022-08-04T06:58:12;25.00;75.40
37786;DHT22;23625;48.784;9.336;2022-08-04T07:00:39;25.10;74.00
37786;DHT22;23625;48.784;9.336;2022-08-04T07:03:06;25.30;73.00
37786;DHT22;23625;48.784;9.336;2022-08-04T07:05:33;25.40;70.10
37786;DHT22;23625;48.784;9.336;2022-08-04T07:07:59;25.50;68.30
37786;DHT22;23625;48.784;9.336;2022-08-04T07:10:27;25.60;67.70
37786;DHT22;23625;48.784;9.336;2022-08-04T07:12:58;25.90;66.10
37786;DHT22;23625;48.784;9.336;2022-08-04T07:15:24;26.00;64.80
37786;DHT22;23625;48.784;9.336;2022-08-04T07:17:52;26.10;63.90
37786;DHT22;23625;48.784;9.336;2022-08-04T07:20:18;26.20;63.80
37786;DHT22;23625;48.784;9.336;2022-08-04T07:22:45;26.50;64.20
37786;DHT22;23625;48.784;9.336;2022-08-04T07:25:14;26.70;64.50
37786;DHT22;23625;48.784;9.336;2022-08-04T07:27:41;27.10;63.60
37786;DHT22;23625;48.784;9.336;2022-08-04T07:30:07;27.40;61.80
37786;DHT22;23625;48.784;9.336;2022-08-04T07:32:34;27.60;60.00
37786;DHT22;23625;48.784;9.336;2022-08-04T07:35:00;27.90;60.30
37786;DHT22;23625;48.784;9.336;2022-08-04T07:37:26;28.10;58.40
37786;DHT22;23625;48.784;9.336;2022-08-04T07:39:52;28.30;58.00
37786;DHT22;23625;48.784;9.336;2022-08-04T07:42:18;28.50;57.10
37786;DHT22;23625;48.784;9.336;2022-08-04T07:44:45;28.70;56.00
37786;DHT22;23625;48.784;9.336;2022-08-04T07:47:11;28.90;55.60
37786;DHT22;23625;48.784;9.336;2022-08-04T07:49:37;29.00;55.60
37786;DHT22;23625;48.784;9.336;2022-08-04T07:52:03;29.30;55.10
37786;DHT22;23625;48.784;9.336;2022-08-04T07:54:30;29.50;54.30
37786;DHT22;23625;48.784;9.336;2022-08-04T07:56:57;29.60;53.40
37786;DHT22;23625;48.784;9.336;2022-08-04T07:59:23;29.80;54.00
37786;DHT22;23625;48.784;9.336;2022-08-04T08:01:49;30.00;53.50
37786;DHT22;23625;48.784;9.336;2022-08-04T08:04:15;30.10;52.70
37786;DHT22;23625;48.784;9.336;2022-08-04T08:06:41;30.30;52.00
37786;DHT22;23625;48.784;9.336;2022-08-04T08:09:15;30.50;52.30
37786;DHT22;23625;48.784;9.336;2022-08-04T08:11:42;30.50;51.80
37786;DHT22;23625;48.784;9.336;2022-08-04T08:14:08;30.70;51.00
37786;DHT22;23625;48.784;9.336;2022-08-04T08:16:35;30.90;50.80
37786;DHT22;23625;48.784;9.336;2022-08-04T08:19:01;31.00;50.30
37786;DHT22;23625;48.784;9.336;2022-08-04T08:21:28;31.10;50.40
37786;DHT22;23625;48.784;9.336;2022-08-04T08:23:55;31.30;50.50
37786;DHT22;23625;48.784;9.336;2022-08-04T08:26:21;31.50;49.80
37786;DHT22;23625;48.784;9.336;2022-08-04T08:28:46;31.50;49.50
37786;DHT22;23625;48.784;9.336;2022-08-04T08:31:12;31.80;49.40
37786;DHT22;23625;48.784;9.336;2022-08-04T08:33:38;31.70;48.90
37786;DHT22;23625;48.784;9.336;2022-08-04T08:39:31;32.10;48.20
37786;DHT22;23625;48.784;9.336;2022-08-04T08:42:35;32.40;47.60
37786;DHT22;23625;48.784;9.336;2022-08-04T08:48:03;33.10;47.00
37786;DHT22;23625;48.784;9.336;2022-08-04T08:50:37;33.20;45.70
37786;DHT22;23625;48.784;9.336;2022-08-04T08:58:31;33.70;44.30
37786;DHT22;23625;48.784;9.336;2022-08-04T09:12:29;34.70;43.50
37786;DHT22;23625;48.784;9.336;2022-08-04T09:15:19;34.90;42.50
37786;DHT22;23625;48.784;9.336;2022-08-04T09:17:51;35.00;42.80
37786;DHT22;23625;48.784;9.336;2022-08-04T09:20:28;35.20;41.40
37786;DHT22;23625;48.784;9.336;2022-08-04T09:25:47;35.30;40.40
37786;DHT22;23625;48.784;9.336;2022-08-04T09:28:24;35.20;39.70
37786;DHT22;23625;48.784;9.336;2022-08-04T09:31:10;35.10;40.40
37786;DHT22;23625;48.784;9.336;2022-08-04T09:33:45;34.90;40.10
37786;DHT22;23625;48.784;9.336;2022-08-04T09:36:25;34.70;41.30
37786;DHT22;23625;48.784;9.336;2022-08-04T09:50:38;34.90;39.90
37786;DHT22;23625;48.784;9.336;2022-08-04T09:53:25;34.80;40.90
37786;DHT22;23625;48.784;9.336;2022-08-04T09:55:57;34.80;41.30
37786;DHT22;23625;48.784;9.336;2022-08-04T10:01:18;35.30;41.90
37786;DHT22;23625;48.784;9.336;2022-08-04T10:03:52;35.60;41.30
37786;DHT22;23625;48.784;9.336;2022-08-04T10:09:46;36.10;41.10
37786;DHT22;23625;48.784;9.336;2022-08-04T10:19:55;36.80;40.00
37786;DHT22;23625;48.784;9.336;2022-08-04T10:22:37;37.10;39.30
37786;DHT22;23625;48.784;9.336;2022-08-04T10:25:44;37.20;39.20
37786;DHT22;23625;48.784;9.336;2022-08-04T10:28:17;37.10;38.70
37786;DHT22;23625;48.784;9.336;2022-08-04T10:30:49;36.90;39.20
37786;DHT22;23625;48.784;9.336;2022-08-04T10:36:58;37.00;39.40
37786;DHT22;23625;48.784;9.336;2022-08-04T10:39:39;37.40;38.80
37786;DHT22;23625;48.784;9.336;2022-08-04T10:42:24;37.50;38.10
37786;DHT22;23625;48.784;9.336;2022-08-04T10:47:34;37.50;38.10
37786;DHT22;23625;48.784;9.336;2022-08-04T10:50:02;37.30;37.20
37786;DHT22;23625;48.784;9.336;2022-08-04T10:52:50;37.10;37.50
37786;DHT22;23625;48.784;9.336;2022-08-04T10:55:24;37.00;37.40
37786;DHT22;23625;48.784;9.336;2022-08-04T10:58:04;37.10;38.00
37786;DHT22;23625;48.784;9.336;2022-08-04T11:00:32;37.20;37.60
37786;DHT22;23625;48.784;9.336;2022-08-04T11:05:40;37.50;37.10
37786;DHT22;23625;48.784;9.336;2022-08-04T11:08:13;37.60;36.40
37786;DHT22;23625;48.784;9.336;2022-08-04T11:10:46;37.60;36.40
37786;DHT22;23625;48.784;9.336;2022-08-04T11:13:15;37.70;36.30
37786;DHT22;23625;48.784;9.336;2022-08-04T11:15:48;37.50;34.40
37786;DHT22;23625;48.784;9.336;2022-08-04T11:18:39;37.40;35.10
37786;DHT22;23625;48.784;9.336;2022-08-04T11:21:20;37.60;37.10
37786;DHT22;23625;48.784;9.336;2022-08-04T11:24:17;37.50;35.40
37786;DHT22;23625;48.784;9.336;2022-08-04T11:26:50;37.30;34.90
37786;DHT22;23625;48.784;9.336;2022-08-04T11:32:33;37.30;36.40
37786;DHT22;23625;48.784;9.336;2022-08-04T11:35:05;37.40;35.50
37786;DHT22;23625;48.784;9.336;2022-08-04T11:37:49;37.70;36.00
37786;DHT22;23625;48.784;9.336;2022-08-04T11:40:23;37.90;35.70
37786;DHT22;23625;48.784;9.336;2022-08-04T11:42:56;37.80;35.20
37786;DHT22;23625;48.784;9.336;2022-08-04T11:45:30;37.70;35.90
37786;DHT22;23625;48.784;9.336;2022-08-04T11:47:57;37.80;36.20
37786;DHT22;23625;48.784;9.336;2022-08-04T11:50:44;38.00;36.40
37786;DHT22;23625;48.784;9.336;2022-08-04T11:53:21;38.20;35.50
37786;DHT22;23625;48.784;9.336;2022-08-04T11:55:48;38.20;35.10
37786;DHT22;23625;48.784;9.336;2022-08-04T11:58:15;38.10;35.30
37786;DHT22;23625;48.784;9.336;2022-08-04T12:06:54;38.40;35.50
37786;DHT22;23625;48.784;9.336;2022-08-04T12:09:38;38.50;35.20
37786;DHT22;23625;48.784;9.336;2022-08-04T12:12:30;38.50;34.70
37786;DHT22;23625;48.784;9.336;2022-08-04T12:15:11;38.60;34.80
37786;DHT22;23625;48.784;9.336;2022-08-04T12:20:19;38.80;35.50
37786;DHT22;23625;48.784;9.336;2022-08-04T12:22:49;38.70;35.50
37786;DHT22;23625;48.784;9.336;2022-08-04T12:27:56;38.90;35.30
37786;DHT22;23625;48.784;9.336;2022-08-04T12:30:22;39.00;35.20
37786;DHT22;23625;48.784;9.336;2022-08-04T12:33:01;39.00;34.90
37786;DHT22;23625;48.784;9.336;2022-08-04T12:35:43;38.90;35.00
37786;DHT22;23625;48.784;9.336;2022-08-04T12:38:12;38.90;35.10
37786;DHT22;23625;48.784;9.336;2022-08-04T12:40:45;39.10;35.30
37786;DHT22;23625;48.784;9.336;2022-08-04T12:45:57;39.50;35.10
37786;DHT22;23625;48.784;9.336;2022-08-04T12:48:26;39.50;35.00
37786;DHT22;23625;48.784;9.336;2022-08-04T12:50:54;39.50;34.30
37786;DHT22;23625;48.784;9.336;2022-08-04T12:53:25;39.50;34.60
37786;DHT22;23625;48.784;9.336;2022-08-04T12:55:51;39.50;34.30
37786;DHT22;23625;48.784;9.336;2022-08-04T12:58:22;39.40;35.10
37786;DHT22;23625;48.784;9.336;2022-08-04T13:00:59;39.50;34.60
37786;DHT22;23625;48.784;9.336;2022-08-04T13:03:46;39.40;34.60
37786;DHT22;23625;48.784;9.336;2022-08-04T13:06:14;39.10;34.20
37786;DHT22;23625;48.784;9.336;2022-08-04T13:08:44;38.70;34.80
37786;DHT22;23625;48.784;9.336;2022-08-04T13:11:11;38.70;35.30
37786;DHT22;23625;48.784;9.336;2022-08-04T13:13:38;38.90;35.20
37786;DHT22;23625;48.784;9.336;2022-08-04T13:16:06;39.20;35.20
37786;DHT22;23625;48.784;9.336;2022-08-04T13:18:37;39.20;34.90
37786;DHT22;23625;48.784;9.336;2022-08-04T13:23:40;38.90;35.10
37786;DHT22;23625;48.784;9.336;2022-08-04T13:26:06;39.00;34.70
37786;DHT22;23625;48.784;9.336;2022-08-04T13:28:33;39.10;35.30
37786;DHT22;23625;48.784;9.336;2022-08-04T13:31:04;39.50;34.90
37786;DHT22;23625;48.784;9.336;2022-08-04T13:33:36;39.40;34.30
37786;DHT22;23625;48.784;9.336;2022-08-04T13:36:04;39.40;34.50
37786;DHT22;23625;48.784;9.336;2022-08-04T13:38:31;39.30;34.20
37786;DHT22;23625;48.784;9.336;2022-08-04T13:41:05;39.10;34.80
37786;DHT22;23625;48.784;9.336;2022-08-04T13:43:33;39.20;34.90
37786;DHT22;23625;48.784;9.336;2022-08-04T13:46:07;39.40;34.00
37786;DHT22;23625;48.784;9.336;2022-08-04T13:48:36;39.40;34.70
37786;DHT22;23625;48.784;9.336;2022-08-04T13:51:04;39.40;34.60
37786;DHT22;23625;48.784;9.336;2022-08-04T13:53:34;39.00;34.40
37786;DHT22;23625;48.784;9.336;2022-08-04T13:56:02;38.50;34.70
37786;DHT22;23625;48.784;9.336;2022-08-04T13:58:33;38.10;35.10
37786;DHT22;23625;48.784;9.336;2022-08-04T14:01:01;38.00;35.50
37786;DHT22;23625;48.784;9.336;2022-08-04T14:03:28;37.90;35.10
37786;DHT22;23625;48.784;9.336;2022-08-04T14:06:19;37.70;35.50
37786;DHT22;23625;48.784;9.336;2022-08-04T14:08:49;37.80;36.20
37786;DHT22;23625;48.784;9.336;2022-08-04T14:11:18;38.10;36.20
37786;DHT22;23625;48.784;9.336;2022-08-04T14:13:44;38.20;35.90
37786;DHT22;23625;48.784;9.336;2022-08-04T14:16:20;38.10;35.80
37786;DHT22;23625;48.784;9.336;2022-08-04T14:18:46;38.20;35.60
37786;DHT22;23625;48.784;9.336;2022-08-04T14:21:14;38.00;35.00
37786;DHT22;23625;48.784;9.336;2022-08-04T14:23:49;37.80;35.80
37786;DHT22;23625;48.784;9.336;2022-08-04T14:26:17;37.60;36.70
37786;DHT22;23625;48.784;9.336;2022-08-04T14:28:42;37.60;36.40
37786;DHT22;23625;48.784;9.336;2022-08-04T14:33:43;37.40;37.40
37786;DHT22;23625;48.784;9.336;2022-08-04T14:36:09;37.50;37.00
37786;DHT22;23625;48.784;9.336;2022-08-04T14:41:07;38.20;36.40
37786;DHT22;23625;48.784;9.336;2022-08-04T14:43:47;38.40;35.70
37786;DHT22;23625;48.784;9.336;2022-08-04T14:46:13;38.60;35.20
37786;DHT22;23625;48.784;9.336;2022-08-04T14:48:40;38.40;35.80
37786;DHT22;23625;48.784;9.336;2022-08-04T14:51:23;38.50;35.50
37786;DHT22;23625;48.784;9.336;2022-08-04T14:53:49;38.60;36.00
37786;DHT22;23625;48.784;9.336;2022-08-04T14:56:14;38.60;35.20
37786;DHT22;23625;48.784;9.336;2022-08-04T14:58:41;38.30;35.40
37786;DHT22;23625;48.784;9.336;2022-08-04T15:01:09;38.30;35.30
37786;DHT22;23625;48.784;9.336;2022-08-04T15:03:42;38.30;35.90
37786;DHT22;23625;48.784;9.336;2022-08-04T15:06:08;38.40;35.30
37786;DHT22;23625;48.784;9.336;2022-08-04T15:08:34;38.50;35.50
37786;DHT22;23625;48.784;9.336;2022-08-04T15:11:01;38.60;35.00
37786;DHT22;23625;48.784;9.336;2022-08-04T15:13:28;38.60;35.90
37786;DHT22;23625;48.784;9.336;2022-08-04T15:15:54;38.70;35.30
37786;DHT22;23625;48.784;9.336;2022-08-04T15:18:20;38.90;35.40
37786;DHT22;23625;48.784;9.336;2022-08-04T15:20:46;38.80;34.70
37786;DHT22;23625;48.784;9.336;2022-08-04T15:23:12;38.70;34.60
37786;DHT22;23625;48.784;9.336;2022-08-04T15:25:41;38.70;35.50
37786;DHT22;23625;48.784;9.336;2022-08-04T15:28:12;38.70;34.70
37786;DHT22;23625;48.784;9.336;2022-08-04T15:30:39;38.40;34.90
37786;DHT22;23625;48.784;9.336;2022-08-04T15:33:07;38.30;35.20
37786;DHT22;23625;48.784;9.336;2022-08-04T15:35:33;38.20;34.80
37786;DHT22;23625;48.784;9.336;2022-08-04T15:38:04;38.10;35.10
37786;DHT22;23625;48.784;9.336;2022-08-04T15:40:46;38.10;34.80
37786;DHT22;23625;48.784;9.336;2022-08-04T15:46:05;38.20;35.60
37786;DHT22;23625;48.784;9.336;2022-08-04T15:48:31;38.50;35.40
37786;DHT22;23625;48.784;9.336;2022-08-04T15:58:57;39.20;34.60
37786;DHT22;23625;48.784;9.336;2022-08-04T16:01:23;39.30;34.80
37786;DHT22;23625;48.784;9.336;2022-08-04T16:03:50;39.30;34.40
37786;DHT22;23625;48.784;9.336;2022-08-04T16:16:44;38.60;34.70
37786;DHT22;23625;48.784;9.336;2022-08-04T16:20:02;38.70;34.80
37786;DHT22;23625;48.784;9.336;2022-08-04T16:22:03;38.90;34.80
37786;DHT22;23625;48.784;9.336;2022-08-04T16:24:29;38.60;34.60
37786;DHT22;23625;48.784;9.336;2022-08-04T16:27:00;38.40;35.30
37786;DHT22;23625;48.784;9.336;2022-08-04T16:29:34;38.50;35.00
37786;DHT22;23625;48.784;9.336;2022-08-04T16:32:15;38.70;34.90
37786;DHT22;23625;48.784;9.336;2022-08-04T16:34:48;38.70;35.10
37786;DHT22;23625;48.784;9.336;2022-08-04T16:37:14;38.90;35.40
37786;DHT22;23625;48.784;9.336;2022-08-04T16:39:41;38.90;34.90
37786;DHT22;23625;48.784;9.336;2022-08-04T16:50:19;38.60;36.80
37786;DHT22;23625;48.784;9.336;2022-08-04T16:55:39;38.40;36.70
37786;DHT22;23625;48.784;9.336;2022-08-04T16:58:09;38.10;37.20
37786;DHT22;23625;48.784;9.336;2022-08-04T17:00:37;37.70;38.70
37786;DHT22;23625;48.784;9.336;2022-08-04T17:03:08;37.50;39.20
37786;DHT22;23625;48.784;9.336;2022-08-04T17:05:34;37.30;39.40
37786;DHT22;23625;48.784;9.336;2022-08-04T17:08:02;37.30;40.10
37786;DHT22;23625;48.784;9.336;2022-08-04T17:10:42;37.00;40.10
37786;DHT22;23625;48.784;9.336;2022-08-04T17:13:27;36.70;41.10
37786;DHT22;23625;48.784;9.336;2022-08-04T17:15:58;36.80;41.90
37786;DHT22;23625;48.784;9.336;2022-08-04T17:18:32;36.90;41.60
37786;DHT22;23625;48.784;9.336;2022-08-04T17:21:03;37.00;41.50
37786;DHT22;23625;48.784;9.336;2022-08-04T17:23:38;37.20;41.20
37786;DHT22;23625;48.784;9.336;2022-08-04T17:26:10;37.30;40.80
37786;DHT22;23625;48.784;9.336;2022-08-04T17:28:37;37.30;40.90
37786;DHT22;23625;48.784;9.336;2022-08-04T17:31:05;37.40;40.60
37786;DHT22;23625;48.784;9.336;2022-08-04T17:33:31;37.30;41.80
37786;DHT22;23625;48.784;9.336;2022-08-04T17:35:58;37.20;41.70
37786;DHT22;23625;48.784;9.336;2022-08-04T17:38:29;37.50;41.50
37786;DHT22;23625;48.784;9.336;2022-08-04T17:40:58;37.40;41.50
37786;DHT22;23625;48.784;9.336;2022-08-04T17:43:41;37.30;41.20
37786;DHT22;23625;48.784;9.336;2022-08-04T17:51:56;36.60;41.30
37786;DHT22;23625;48.784;9.336;2022-08-04T17:54:32;35.70;42.30
37786;DHT22;23625;48.784;9.336;2022-08-04T17:57:00;34.90;43.10
37786;DHT22;23625;48.784;9.336;2022-08-04T17:59:28;34.30;44.10
37786;DHT22;23625;48.784;9.336;2022-08-04T18:02:00;33.80;45.30
37786;DHT22;23625;48.784;9.336;2022-08-04T18:04:37;33.60;45.90
37786;DHT22;23625;48.784;9.336;2022-08-04T18:07:10;33.30;46.00
37786;DHT22;23625;48.784;9.336;2022-08-04T18:14:57;32.60;47.40
37786;DHT22;23625;48.784;9.336;2022-08-04T18:19:56;32.00;48.80
37786;DHT22;23625;48.784;9.336;2022-08-04T18:22:21;31.80;49.60
37786;DHT22;23625;48.784;9.336;2022-08-04T18:24:47;31.60;50.10
37786;DHT22;23625;48.784;9.336;2022-08-04T18:27:14;31.30;50.50
37786;DHT22;23625;48.784;9.336;2022-08-04T18:29:40;31.10;51.50
37786;DHT22;23625;48.784;9.336;2022-08-04T18:32:07;30.90;52.10
37786;DHT22;23625;48.784;9.336;2022-08-04T18:34:34;30.70;52.90
37786;DHT22;23625;48.784;9.336;2022-08-04T18:36:59;30.60;53.60
37786;DHT22;23625;48.784;9.336;2022-08-04T18:39:25;30.40;54.10
37786;DHT22;23625;48.784;9.336;2022-08-04T18:41:52;30.20;54.70
37786;DHT22;23625;48.784;9.336;2022-08-04T18:44:19;30.00;55.50
37786;DHT22;23625;48.784;9.336;2022-08-04T18:46:44;29.80;56.00
37786;DHT22;23625;48.784;9.336;2022-08-04T18:49:10;29.70;57.20
37786;DHT22;23625;48.784;9.336;2022-08-04T18:51:37;29.50;57.80
37786;DHT22;23625;48.784;9.336;2022-08-04T18:54:06;29.30;58.30
37786;DHT22;23625;48.784;9.336;2022-08-04T18:56:32;29.10;58.60
37786;DHT22;23625;48.784;9.336;2022-08-04T18:59:03;29.10;58.60
37786;DHT22;23625;48.784;9.336;2022-08-04T19:01:30;28.90;58.70
37786;DHT22;23625;48.784;9.336;2022-08-04T19:03:56;28.80;59.50
37786;DHT22;23625;48.784;9.336;2022-08-04T19:06:22;28.60;60.00
37786;DHT22;23625;48.784;9.336;2022-08-04T19:08:47;28.50;60.60
37786;DHT22;23625;48.784;9.336;2022-08-04T19:11:13;28.40;61.50
37786;DHT22;23625;48.784;9.336;2022-08-04T19:13:39;28.30;64.00
37786;DHT22;23625;48.784;9.336;2022-08-04T19:16:05;28.10;65.70
37786;DHT22;23625;48.784;9.336;2022-08-04T19:18:30;28.00;66.40
37786;DHT22;23625;48.784;9.336;2022-08-04T19:20:58;27.90;66.70
37786;DHT22;23625;48.784;9.336;2022-08-04T19:23:23;27.80;66.80
37786;DHT22;23625;48.784;9.336;2022-08-04T19:25:49;27.70;67.30
37786;DHT22;23625;48.784;9.336;2022-08-04T19:28:15;27.60;67.20
37786;DHT22;23625;48.784;9.336;2022-08-04T19:30:41;27.50;67.10
37786;DHT22;23625;48.784;9.336;2022-08-04T19:33:07;27.40;67.50
37786;DHT22;23625;48.784;9.336;2022-08-04T19:35:33;27.30;68.00
37786;DHT22;23625;48.784;9.336;2022-08-04T19:37:59;27.30;67.60
37786;DHT22;23625;48.784;9.336;2022-08-04T19:40:24;27.10;68.60
37786;DHT22;23625;48.784;9.336;2022-08-04T19:42:50;26.90;69.20
37786;DHT22;23625;48.784;9.336;2022-08-04T19:45:16;26.90;69.50
37786;DHT22;23625;48.784;9.336;2022-08-04T19:47:43;26.70;70.20
37786;DHT22;23625;48.784;9.336;2022-08-04T19:50:09;26.70;70.60
37786;DHT22;23625;48.784;9.336;2022-08-04T19:52:34;26.70;69.50
37786;DHT22;23625;48.784;9.336;2022-08-04T19:55:00;26.60;70.30
37786;DHT22;23625;48.784;9.336;2022-08-04T19:57:26;26.60;71.00
37786;DHT22;23625;48.784;9.336;2022-08-04T19:59:52;26.50;71.40
37786;DHT22;23625;48.784;9.336;2022-08-04T20:02:17;26.50;71.70
37786;DHT22;23625;48.784;9.336;2022-08-04T20:04:43;26.40;72.60
37786;DHT22;23625;48.784;9.336;2022-08-04T20:07:08;26.50;72.10
37786;DHT22;23625;48.784;9.336;2022-08-04T20:09:34;26.50;71.90
37786;DHT22;23625;48.784;9.336;2022-08-04T20:11:59;26.60;72.30
37786;DHT22;23625;48.784;9.336;2022-08-04T20:14:25;26.60;71.40
37786;DHT22;23625;48.784;9.336;2022-08-04T20:16:52;26.80;70.70
37786;DHT22;23625;48.784;9.336;2022-08-04T20:19:18;26.70;70.70
37786;DHT22;23625;48.784;9.336;2022-08-04T20:21:44;26.60;72.00
37786;DHT22;23625;48.784;9.336;2022-08-04T20:24:09;26.60;71.30
37786;DHT22;23625;48.784;9.336;2022-08-04T20:26:35;26.50;71.60
37786;DHT22;23625;48.784;9.336;2022-08-04T20:29:01;26.40;72.20
37786;DHT22;23625;48.784;9.336;2022-08-04T20:31:26;26.50;71.90